American Mariner — WQZ7791 — position and weather

sailwx.info

Track history (hours):
 
Tides and Currents Weather Stations Pressure Air Temp Water Temp Dewpoint Dewpoint Depression Visibility Wind Speed Wind Dir Waves Ship Positions

American Mariner

Owner: AMERICAN STEAMSHIP COMPANY, WILLIAMSVILLE, NY. More information available from US FCC via Universal Licensing System and Coast Guard Vessel Documentation Center.

Last reported at 2018-Jul-19 14:00 UTC. Time now 2018-Jul-20 08:39 UTC.
Position N 42°00' W 081°12'.

Length 222 m; draft 8.1 m.

Type: Ship (hazmat cat A). MMSI: 366938710.

Wind from 160 at 6 knots

Barometer 1021.3 mb
Air temperature 21.1 ° C
Visibility: greater than 5.4 NM

Date/timePositionNaut miles runAvg speedWind from/ knotsBaromVisibWave heightAir tempDewpointWater temp
2018-Jul-19 14:00N 42°00' W 081°12'220 4.2 160 / 61021.3 5.4 21.1
2018-Jul-17 10:02N 45°20' W 083°17'012.9
2018-Jul-17 10:00N 45°21' W 083°18'613.0
2018-Jul-17 09:30N 45°25' W 083°25'713.0
2018-Jul-17 09:00N 45°29' W 083°32'612.9
2018-Jul-17 08:30N 45°34' W 083°39'712.6
2018-Jul-17 07:59N 45°38' W 083°45'2112.7
2018-Jul-17 06:21N 45°52' W 084°08'412.5
2018-Jul-17 06:00N 45°55' W 084°12'5 7.1
2018-Jul-17 05:19N 45°59' W 084°16'0 0.7
2018-Jul-17 04:56N 45°59' W 084°17'0 0.0
2018-Jul-17 04:30N 45°59' W 084°17'0 0.0
2018-Jul-17 03:58N 45°59' W 084°17'0 0.0
2018-Jul-17 03:30N 45°59' W 084°17'0 0.0
2018-Jul-17 03:00N 45°59' W 084°17'0 0.0
2018-Jul-17 02:29N 45°59' W 084°17'0 0.0
2018-Jul-17 02:01N 45°59' W 084°17'0 0.0
2018-Jul-17 01:17N 45°59' W 084°17'0 0.0
2018-Jul-17 00:00N 45°59' W 084°17'0 0.0
2018-Jul-16 22:42N 45°59' W 084°17'0 0.0
2018-Jul-16 22:30N 45°59' W 084°17'0 0.0
2018-Jul-16 21:59N 45°59' W 084°17'0 0.0
2018-Jul-16 21:31N 45°59' W 084°17'0 0.0
2018-Jul-16 21:00N 45°59' W 084°17'0 0.0
2018-Jul-16 20:31N 45°59' W 084°17'0 0.0
2018-Jul-16 19:59N 45°59' W 084°17'0 0.0
2018-Jul-16 19:27N 45°59' W 084°17'0 0.0
2018-Jul-16 19:00N 45°59' W 084°17'0 0.0
2018-Jul-16 18:24N 45°59' W 084°17'0 0.1
2018-Jul-16 17:55N 45°59' W 084°17'0 0.0
2018-Jul-16 17:28N 45°59' W 084°17'0 0.0
2018-Jul-16 16:52N 45°59' W 084°17'0 0.0
2018-Jul-16 13:25N 45°59' W 084°17'0 0.0
2018-Jul-16 12:59N 45°59' W 084°17'0 0.0
2018-Jul-16 12:29N 45°59' W 084°17'4 3.3
2018-Jul-16 11:12N 45°55' W 084°15'212.8
2018-Jul-16 11:01N 45°54' W 084°18'612.9
2018-Jul-16 10:31N 45°53' W 084°27'713.0
2018-Jul-16 10:01N 45°51' W 084°36'612.8
2018-Jul-16 09:31N 45°49' W 084°45'713.2
2018-Jul-16 09:01N 45°50' W 084°54'713.1
2018-Jul-16 08:31N 45°51' W 085°03'713.2
2018-Jul-16 08:01N 45°52' W 085°13'713.0
2018-Jul-16 07:30N 45°53' W 085°22'612.7
2018-Jul-16 06:59N 45°53' W 085°32'612.7
2018-Jul-16 06:31N 45°53' W 085°40'712.8
2018-Jul-16 05:59N 45°51' W 085°50'612.6
2018-Jul-16 05:30N 45°46' W 085°55'713.1
2018-Jul-16 04:58N 45°40' W 086°00'613.2
2018-Jul-16 04:31N 45°35' W 086°04'713.3
2018-Jul-16 04:01N 45°29' W 086°08'713.1
2018-Jul-16 03:27N 45°23' W 086°13'613.2
2018-Jul-16 02:59N 45°18' W 086°20'12512.5
2018-Jul-15 17:00N 43°18' W 087°06'18 0.7 110 / 41016.910.8 23.321.6
2018-Jul-14 14:00N 43°00' W 087°06'18512.2 220 / 111018.9 2.2 21.1
2018-Jul-13 22:51N 45°57' W 085°53'1 1.5
2018-Jul-13 22:25N 45°58' W 085°53'0 0.8
2018-Jul-13 21:54N 45°58' W 085°52'0 0.0
2018-Jul-13 20:56N 45°58' W 085°52'0 0.0
2018-Jul-13 19:35N 45°58' W 085°52'0 0.1
2018-Jul-13 19:30N 45°58' W 085°52'0 0.0
2018-Jul-13 19:00N 45°58' W 085°52'0 0.0
2018-Jul-13 18:08N 45°58' W 085°52'0 0.0
2018-Jul-13 17:38N 45°58' W 085°52'0 0.0
2018-Jul-13 09:09N 45°58' W 085°52'0 0.0
2018-Jul-13 09:00N 45°58' W 085°52'0 0.0
2018-Jul-13 08:27N 45°58' W 085°52'4 2.9
2018-Jul-13 07:10N 45°54' W 085°53'1 5.1
2018-Jul-13 06:59N 45°54' W 085°53'3 6.6
2018-Jul-13 06:30N 45°51' W 085°56'612.9
2018-Jul-13 06:00N 45°45' W 086°00'573925.4
2018-Jul-13 06:00N 46°42' W 086°00'62128.7 200 / 111017.2 19.4
2018-Jul-13 05:30N 45°40' W 086°05'713.4
2018-Jul-13 05:00N 45°34' W 086°10'713.5
2018-Jul-13 04:30N 45°28' W 086°15'148 4.2
2018-Jul-11 17:00N 43°06' W 087°12'8512.1 130 / 81023.010.8 21.1
2018-Jul-11 10:00N 44°30' W 086°54'6 9.9 080 / 71022.310.8 18.8
2018-Jul-11 09:23N 44°35' W 086°50'513.2
2018-Jul-11 09:00N 44°40' W 086°48'2013.1
2018-Jul-11 07:28N 44°59' W 086°38'613.2
2018-Jul-11 07:00N 45°04' W 086°34'5360.5
2018-Jul-11 07:00N 45°00' W 086°30'3414.3 040 / 61015.9 18.8
2018-Jul-11 04:34N 45°32' W 086°13'313.0
2018-Jul-11 04:19N 45°35' W 086°11'512.8
2018-Jul-11 03:57N 45°39' W 086°07'812.5
2018-Jul-11 03:19N 45°44' W 085°58'513.0
2018-Jul-11 02:57N 45°46' W 085°52'612.8
2018-Jul-11 02:30N 45°49' W 085°45'612.8
2018-Jul-11 02:00N 45°52' W 085°37'612.1
2018-Jul-11 01:30N 45°54' W 085°29'612.6
2018-Jul-11 01:00N 45°53' W 085°20'612.8
2018-Jul-11 00:30N 45°52' W 085°11'612.8
2018-Jul-11 00:00N 45°51' W 085°02'612.6
2018-Jul-10 23:30N 45°50' W 084°53'510.6
2018-Jul-10 23:00N 45°49' W 084°45'611.4
2018-Jul-10 22:30N 45°50' W 084°37'612.3
2018-Jul-10 22:00N 45°52' W 084°29'612.3
2018-Jul-10 21:30N 45°53' W 084°20'610.0
2018-Jul-10 20:53N 45°58' W 084°14'2 3.0
2018-Jul-10 20:08N 45°59' W 084°17'0 0.0
2018-Jul-10 19:59N 45°59' W 084°17'0 0.0
2018-Jul-10 19:30N 45°59' W 084°17'0 0.0
2018-Jul-10 19:00N 45°59' W 084°17'0 0.0
2018-Jul-10 18:30N 45°59' W 084°17'0 0.0
2018-Jul-10 18:01N 45°59' W 084°17'0 0.0
2018-Jul-10 17:30N 45°59' W 084°17'0 0.0
2018-Jul-10 17:00N 45°59' W 084°17'0 0.0
2018-Jul-10 16:30N 45°59' W 084°17'0 0.0
2018-Jul-10 16:00N 45°59' W 084°17'0 0.0
2018-Jul-10 15:30N 45°59' W 084°17'0 0.0
2018-Jul-10 15:00N 45°59' W 084°17'0 0.0
2018-Jul-10 14:29N 45°59' W 084°17'0 0.0
2018-Jul-10 14:00N 45°59' W 084°17'0 0.0
2018-Jul-10 13:30N 45°59' W 084°17'0 0.0
2018-Jul-10 13:00N 45°59' W 084°17'0 0.0
2018-Jul-10 12:30N 45°59' W 084°17'0 0.1
2018-Jul-10 12:00N 45°59' W 084°17'0 0.0
2018-Jul-10 11:30N 45°59' W 084°17'0 0.0
2018-Jul-10 11:00N 45°59' W 084°17'0 0.0
2018-Jul-10 10:30N 45°59' W 084°17'0 0.0
2018-Jul-10 10:00N 45°59' W 084°17'0 0.0
2018-Jul-10 09:30N 45°59' W 084°17'0 0.0
2018-Jul-10 09:00N 45°59' W 084°17'0 0.0
2018-Jul-10 08:30N 45°59' W 084°17'0 0.0
2018-Jul-10 08:00N 45°59' W 084°17'0 0.0
2018-Jul-10 07:29N 45°59' W 084°17'0 0.0
2018-Jul-10 07:00N 45°59' W 084°17'0 0.0
2018-Jul-10 06:30N 45°59' W 084°17'0 0.0
2018-Jul-10 06:00N 45°59' W 084°17'0 0.0
2018-Jul-10 05:30N 45°59' W 084°17'0 0.0
2018-Jul-10 05:00N 45°59' W 084°17'0 0.0
2018-Jul-10 04:30N 45°59' W 084°17'1 1.2
2018-Jul-10 04:00N 45°59' W 084°16'2 3.2
2018-Jul-10 03:30N 45°58' W 084°14'612.2
2018-Jul-10 03:00N 45°53' W 084°09'713.0
2018-Jul-10 02:30N 45°50' W 084°00'713.2
2018-Jul-10 01:59N 45°48' W 083°51'  
Track history (hours):
 
Tides and Currents Weather Stations Pressure Air Temp Water Temp Dewpoint Dewpoint Depression Visibility Wind Speed Wind Dir Waves Ship Positions

American Mariner

Owner: AMERICAN STEAMSHIP COMPANY, WILLIAMSVILLE, NY. More information available from US FCC via Universal Licensing System and Coast Guard Vessel Documentation Center.

Last reported at 2018-Jul-19 14:00 UTC. Time now 2018-Jul-20 08:39 UTC.
Position N 42°00' W 081°12'.

Length 222 m; draft 8.1 m.

Type: Ship (hazmat cat A). MMSI: 366938710.

Wind from 160 at 6 knots

Barometer 1021.3 mb
Air temperature 21.1 ° C
Visibility: greater than 5.4 NM

Date/timePositionNaut miles runAvg speedWind from/ knotsBaromVisibWave heightAir tempDewpointWater temp
2018-Jul-19 14:00N 42°00' W 081°12'220 4.2 160 / 61021.3 5.4 21.1
2018-Jul-17 10:02N 45°20' W 083°17'012.9
2018-Jul-17 10:00N 45°21' W 083°18'613.0
2018-Jul-17 09:30N 45°25' W 083°25'713.0
2018-Jul-17 09:00N 45°29' W 083°32'612.9
2018-Jul-17 08:30N 45°34' W 083°39'712.6
2018-Jul-17 07:59N 45°38' W 083°45'2112.7
2018-Jul-17 06:21N 45°52' W 084°08'412.5
2018-Jul-17 06:00N 45°55' W 084°12'5 7.1
2018-Jul-17 05:19N 45°59' W 084°16'0 0.7
2018-Jul-17 04:56N 45°59' W 084°17'0 0.0
2018-Jul-17 04:30N 45°59' W 084°17'0 0.0
2018-Jul-17 03:58N 45°59' W 084°17'0 0.0
2018-Jul-17 03:30N 45°59' W 084°17'0 0.0
2018-Jul-17 03:00N 45°59' W 084°17'0 0.0
2018-Jul-17 02:29N 45°59' W 084°17'0 0.0
2018-Jul-17 02:01N 45°59' W 084°17'0 0.0
2018-Jul-17 01:17N 45°59' W 084°17'0 0.0
2018-Jul-17 00:00N 45°59' W 084°17'0 0.0
2018-Jul-16 22:42N 45°59' W 084°17'0 0.0
2018-Jul-16 22:30N 45°59' W 084°17'0 0.0
2018-Jul-16 21:59N 45°59' W 084°17'0 0.0
2018-Jul-16 21:31N 45°59' W 084°17'0 0.0
2018-Jul-16 21:00N 45°59' W 084°17'0 0.0
2018-Jul-16 20:31N 45°59' W 084°17'0 0.0
2018-Jul-16 19:59N 45°59' W 084°17'0 0.0
2018-Jul-16 19:27N 45°59' W 084°17'0 0.0
2018-Jul-16 19:00N 45°59' W 084°17'0 0.0
2018-Jul-16 18:24N 45°59' W 084°17'0 0.1
2018-Jul-16 17:55N 45°59' W 084°17'0 0.0
2018-Jul-16 17:28N 45°59' W 084°17'0 0.0
2018-Jul-16 16:52N 45°59' W 084°17'0 0.0
2018-Jul-16 13:25N 45°59' W 084°17'0 0.0
2018-Jul-16 12:59N 45°59' W 084°17'0 0.0
2018-Jul-16 12:29N 45°59' W 084°17'4 3.3
2018-Jul-16 11:12N 45°55' W 084°15'212.8
2018-Jul-16 11:01N 45°54' W 084°18'612.9
2018-Jul-16 10:31N 45°53' W 084°27'713.0
2018-Jul-16 10:01N 45°51' W 084°36'612.8
2018-Jul-16 09:31N 45°49' W 084°45'713.2
2018-Jul-16 09:01N 45°50' W 084°54'713.1
2018-Jul-16 08:31N 45°51' W 085°03'713.2
2018-Jul-16 08:01N 45°52' W 085°13'713.0
2018-Jul-16 07:30N 45°53' W 085°22'612.7
2018-Jul-16 06:59N 45°53' W 085°32'612.7
2018-Jul-16 06:31N 45°53' W 085°40'712.8
2018-Jul-16 05:59N 45°51' W 085°50'612.6
2018-Jul-16 05:30N 45°46' W 085°55'713.1
2018-Jul-16 04:58N 45°40' W 086°00'613.2
2018-Jul-16 04:31N 45°35' W 086°04'713.3
2018-Jul-16 04:01N 45°29' W 086°08'713.1
2018-Jul-16 03:27N 45°23' W 086°13'613.2
2018-Jul-16 02:59N 45°18' W 086°20'12512.5
2018-Jul-15 17:00N 43°18' W 087°06'18 0.7 110 / 41016.910.8 23.321.6
2018-Jul-14 14:00N 43°00' W 087°06'18512.2 220 / 111018.9 2.2 21.1
2018-Jul-13 22:51N 45°57' W 085°53'1 1.5
2018-Jul-13 22:25N 45°58' W 085°53'0 0.8
2018-Jul-13 21:54N 45°58' W 085°52'0 0.0
2018-Jul-13 20:56N 45°58' W 085°52'0 0.0
2018-Jul-13 19:35N 45°58' W 085°52'0 0.1
2018-Jul-13 19:30N 45°58' W 085°52'0 0.0
2018-Jul-13 19:00N 45°58' W 085°52'0 0.0
2018-Jul-13 18:08N 45°58' W 085°52'0 0.0
2018-Jul-13 17:38N 45°58' W 085°52'0 0.0
2018-Jul-13 09:09N 45°58' W 085°52'0 0.0
2018-Jul-13 09:00N 45°58' W 085°52'0 0.0
2018-Jul-13 08:27N 45°58' W 085°52'4 2.9
2018-Jul-13 07:10N 45°54' W 085°53'1 5.1
2018-Jul-13 06:59N 45°54' W 085°53'3 6.6
2018-Jul-13 06:30N 45°51' W 085°56'612.9
2018-Jul-13 06:00N 45°45' W 086°00'573925.4
2018-Jul-13 06:00N 46°42' W 086°00'62128.7 200 / 111017.2 19.4
2018-Jul-13 05:30N 45°40' W 086°05'713.4
2018-Jul-13 05:00N 45°34' W 086°10'713.5
2018-Jul-13 04:30N 45°28' W 086°15'148 4.2
2018-Jul-11 17:00N 43°06' W 087°12'8512.1 130 / 81023.010.8 21.1
2018-Jul-11 10:00N 44°30' W 086°54'6 9.9 080 / 71022.310.8 18.8
2018-Jul-11 09:23N 44°35' W 086°50'513.2
2018-Jul-11 09:00N 44°40' W 086°48'2013.1
2018-Jul-11 07:28N 44°59' W 086°38'613.2
2018-Jul-11 07:00N 45°04' W 086°34'5360.5
2018-Jul-11 07:00N 45°00' W 086°30'3414.3 040 / 61015.9 18.8
2018-Jul-11 04:34N 45°32' W 086°13'313.0
2018-Jul-11 04:19N 45°35' W 086°11'512.8
2018-Jul-11 03:57N 45°39' W 086°07'812.5
2018-Jul-11 03:19N 45°44' W 085°58'513.0
2018-Jul-11 02:57N 45°46' W 085°52'612.8
2018-Jul-11 02:30N 45°49' W 085°45'612.8
2018-Jul-11 02:00N 45°52' W 085°37'612.1
2018-Jul-11 01:30N 45°54' W 085°29'612.6
2018-Jul-11 01:00N 45°53' W 085°20'612.8
2018-Jul-11 00:30N 45°52' W 085°11'612.8
2018-Jul-11 00:00N 45°51' W 085°02'612.6
2018-Jul-10 23:30N 45°50' W 084°53'510.6
2018-Jul-10 23:00N 45°49' W 084°45'611.4
2018-Jul-10 22:30N 45°50' W 084°37'612.3
2018-Jul-10 22:00N 45°52' W 084°29'612.3
2018-Jul-10 21:30N 45°53' W 084°20'610.0
2018-Jul-10 20:53N 45°58' W 084°14'2 3.0
2018-Jul-10 20:08N 45°59' W 084°17'0 0.0
2018-Jul-10 19:59N 45°59' W 084°17'0 0.0
2018-Jul-10 19:30N 45°59' W 084°17'0 0.0
2018-Jul-10 19:00N 45°59' W 084°17'0 0.0
2018-Jul-10 18:30N 45°59' W 084°17'0 0.0
2018-Jul-10 18:01N 45°59' W 084°17'0 0.0
2018-Jul-10 17:30N 45°59' W 084°17'0 0.0
2018-Jul-10 17:00N 45°59' W 084°17'0 0.0
2018-Jul-10 16:30N 45°59' W 084°17'0 0.0
2018-Jul-10 16:00N 45°59' W 084°17'0 0.0
2018-Jul-10 15:30N 45°59' W 084°17'0 0.0
2018-Jul-10 15:00N 45°59' W 084°17'0 0.0
2018-Jul-10 14:29N 45°59' W 084°17'0 0.0
2018-Jul-10 14:00N 45°59' W 084°17'0 0.0
2018-Jul-10 13:30N 45°59' W 084°17'0 0.0
2018-Jul-10 13:00N 45°59' W 084°17'0 0.0
2018-Jul-10 12:30N 45°59' W 084°17'0 0.1
2018-Jul-10 12:00N 45°59' W 084°17'0 0.0
2018-Jul-10 11:30N 45°59' W 084°17'0 0.0
2018-Jul-10 11:00N 45°59' W 084°17'0 0.0
2018-Jul-10 10:30N 45°59' W 084°17'0 0.0
2018-Jul-10 10:00N 45°59' W 084°17'0 0.0
2018-Jul-10 09:30N 45°59' W 084°17'0 0.0
2018-Jul-10 09:00N 45°59' W 084°17'0 0.0
2018-Jul-10 08:30N 45°59' W 084°17'0 0.0
2018-Jul-10 08:00N 45°59' W 084°17'0 0.0
2018-Jul-10 07:29N 45°59' W 084°17'0 0.0
2018-Jul-10 07:00N 45°59' W 084°17'0 0.0
2018-Jul-10 06:30N 45°59' W 084°17'0 0.0
2018-Jul-10 06:00N 45°59' W 084°17'0 0.0
2018-Jul-10 05:30N 45°59' W 084°17'0 0.0
2018-Jul-10 05:00N 45°59' W 084°17'0 0.0
2018-Jul-10 04:30N 45°59' W 084°17'1 1.2
2018-Jul-10 04:00N 45°59' W 084°16'2 3.2
2018-Jul-10 03:30N 45°58' W 084°14'612.2
2018-Jul-10 03:00N 45°53' W 084°09'713.0
2018-Jul-10 02:30N 45°50' W 084°00'713.2
2018-Jul-10 01:59N 45°48' W 083°51'  

Dump ship's entire track history